createdAt,value
2019-03-01T00:00:53.969Z,68.85
2019-03-01T00:02:03.676Z,68.95
2019-03-01T00:03:13.608Z,68.95
2019-03-01T00:04:23.288Z,68.85
2019-03-01T00:05:33.010Z,68.57
2019-03-01T00:06:42.948Z,68.85
2019-03-01T00:07:52.648Z,68.95
2019-03-01T00:09:02.587Z,68.66
2019-03-01T00:10:12.531Z,68.76
2019-03-01T00:11:22.233Z,68.85
2019-03-01T00:12:31.918Z,68.66
2019-03-01T00:13:41.368Z,68.47
2019-03-01T00:14:51.307Z,68.66
2019-03-01T00:16:01.262Z,69.34
2019-03-01T00:17:11.206Z,68.95
2019-03-01T00:18:20.934Z,69.24
2019-03-01T00:19:30.641Z,69.14
2019-03-01T00:20:40.595Z,69.34
2019-03-01T00:21:50.549Z,69.24
2019-03-01T00:23:00.001Z,68.85
2019-03-01T00:24:09.963Z,68.85
2019-03-01T00:25:19.400Z,68.66
2019-03-01T00:26:29.090Z,68.85
2019-03-01T00:27:38.783Z,68.95
2019-03-01T00:28:48.230Z,68.85
2019-03-01T00:29:57.951Z,68.85
2019-03-01T00:31:07.925Z,68.76
2019-03-01T00:32:17.633Z,68.85
2019-03-01T00:33:27.089Z,68.95
2019-03-01T00:34:37.038Z,68.85
2019-03-01T00:35:46.980Z,68.95
2019-03-01T00:36:56.416Z,68.85
2019-03-01T00:38:05.859Z,68.85
2019-03-01T00:39:15.541Z,68.66
2019-03-01T00:40:24.979Z,69.05
2019-03-01T00:41:34.665Z,69.14
2019-03-01T00:42:44.355Z,69.05
2019-03-01T00:43:54.039Z,69.05
2019-03-01T00:45:03.483Z,68.82
2019-03-01T00:46:12.928Z,69.34
2019-03-01T00:47:22.408Z,69.24
2019-03-01T00:48:32.359Z,69.05
2019-03-01T00:49:42.057Z,69.14
2019-03-01T00:50:52.012Z,69.34
2019-03-01T00:52:01.699Z,69.24
2019-03-01T00:53:11.396Z,69.2
2019-03-01T00:54:21.090Z,69.24
2019-03-01T00:55:30.791Z,68.91
2019-03-01T00:56:40.228Z,69.14
2019-03-01T00:57:49.908Z,69.2
2019-03-01T00:58:59.608Z,69.24
2019-03-01T01:00:09.306Z,69.34
2019-03-01T01:01:18.744Z,69.2
2019-03-01T01:02:28.698Z,69.2
2019-03-01T01:03:38.648Z,68.82
2019-03-01T01:04:48.590Z,69.59
2019-03-01T01:05:58.548Z,69.81
2019-03-01T01:07:08.282Z,69.87
2019-03-01T01:08:17.724Z,69.87
2019-03-01T01:09:27.500Z,69.59
2019-03-01T01:10:37.451Z,69.72
2019-03-01T01:11:47.206Z,69.72
2019-03-01T01:12:56.651Z,69.59
2019-03-01T01:14:06.617Z,69.59
2019-03-01T01:15:16.323Z,69.59
2019-03-01T01:16:26.012Z,69.68
2019-03-01T01:17:35.700Z,69.72
2019-03-01T01:18:45.185Z,69.87
2019-03-01T01:19:54.871Z,69.49
2019-03-01T01:21:04.556Z,69.59
2019-03-01T01:22:14.248Z,69.87
2019-03-01T01:23:23.680Z,69.87
2019-03-01T01:24:33.367Z,69.97
2019-03-01T01:25:43.327Z,70.07
2019-03-01T01:26:52.792Z,69.91
2019-03-01T01:28:02.243Z,69.87
2019-03-01T01:29:11.947Z,69.87
2019-03-01T01:30:21.930Z,69.87
2019-03-01T01:31:31.634Z,69.97
2019-03-01T01:32:41.328Z,69.97
2019-03-01T01:33:51.032Z,70.17
2019-03-01T01:35:00.343Z,69.87
2019-03-01T01:36:09.827Z,69.97
2019-03-01T01:37:19.781Z,70.17
2019-03-01T01:38:29.490Z,70.07
2019-03-01T01:39:39.455Z,70.36
2019-03-01T01:40:48.889Z,70.36
2019-03-01T01:41:58.842Z,70.55
2019-03-01T01:43:08.791Z,70.36
2019-03-01T01:44:18.729Z,70.36
2019-03-01T01:45:28.189Z,70.36
2019-03-01T01:46:37.649Z,70.07
2019-03-01T01:47:46.837Z,70.36
2019-03-01T01:48:56.550Z,69.68
2019-03-01T01:50:06.505Z,70.07
2019-03-01T01:51:16.193Z,70.36
2019-03-01T01:52:25.886Z,69.97
2019-03-01T01:53:35.828Z,69.87
2019-03-01T01:54:45.519Z,70.07
2019-03-01T01:55:55.205Z,69.68
2019-03-01T01:57:04.943Z,70.17
2019-03-01T01:58:14.129Z,69.78
2019-03-01T01:59:24.083Z,70.36
2019-03-01T02:00:33.038Z,70.45
2019-03-01T02:01:42.228Z,70.45
2019-03-01T02:02:51.684Z,69.97
2019-03-01T02:04:01.443Z,70.45
2019-03-01T02:05:10.877Z,70.07
2019-03-01T02:06:20.847Z,70.17
2019-03-01T02:07:30.280Z,70.17
2019-03-01T02:08:39.967Z,70.17
2019-03-01T02:09:49.713Z,70.45
2019-03-01T02:10:59.461Z,70.07
2019-03-01T02:12:09.154Z,70.45
2019-03-01T02:13:19.096Z,70.07
2019-03-01T02:14:29.056Z,70.07
2019-03-01T02:15:38.496Z,70.55
2019-03-01T02:16:48.212Z,70.55
2019-03-01T02:17:57.147Z,70.93
2019-03-01T02:19:06.857Z,70.36
2019-03-01T02:20:16.799Z,70.84
2019-03-01T02:21:26.486Z,70.93
2019-03-01T02:22:35.921Z,70.93
2019-03-01T02:23:45.367Z,70.84
2019-03-01T02:24:55.065Z,70.93
2019-03-01T02:26:04.998Z,70.36
2019-03-01T02:27:14.680Z,70.36
2019-03-01T02:28:24.627Z,70.36
2019-03-01T02:29:34.319Z,70.17
2019-03-01T02:30:44.037Z,70.36
2019-03-01T02:31:54.047Z,70.93
2019-03-01T02:33:03.793Z,70.45
2019-03-01T02:34:13.740Z,70.17
2019-03-01T02:35:23.210Z,70.36
2019-03-01T02:36:33.241Z,70.26
2019-03-01T02:37:43.024Z,70.74
2019-03-01T02:38:53.009Z,70.36
2019-03-01T02:40:02.817Z,70.17
2019-03-01T02:41:12.544Z,70.36
2019-03-01T02:42:22.239Z,70.93
2019-03-01T02:43:32.002Z,70.55
2019-03-01T02:44:42.000Z,70.36
2019-03-01T02:45:51.973Z,70.17
2019-03-01T02:47:01.676Z,70.36
2019-03-01T02:48:11.635Z,70.84
2019-03-01T02:49:21.578Z,70.45
2019-03-01T02:50:31.531Z,70.55
2019-03-01T02:51:41.545Z,70.36
2019-03-01T02:52:51.083Z,70.36
2019-03-01T02:54:00.831Z,70.74
2019-03-01T02:55:10.815Z,70.07
2019-03-01T02:56:20.512Z,70.17
2019-03-01T02:57:30.308Z,70.36
2019-03-01T02:58:40.021Z,70.36
2019-03-01T02:59:49.966Z,70.45
2019-03-01T03:00:59.926Z,70.26
2019-03-01T03:02:09.877Z,70.74
2019-03-01T03:03:19.835Z,70.74
2019-03-01T03:04:29.798Z,70.74
2019-03-01T03:05:39.760Z,70.93
2019-03-01T03:06:49.552Z,71.03
2019-03-01T03:07:59.568Z,70.84
2019-03-01T03:09:09.295Z,70.45
2019-03-01T03:10:19.264Z,70.36
2019-03-01T03:11:29.249Z,70.36
2019-03-01T03:12:39.208Z,70.84
2019-03-01T03:13:48.660Z,70.84
2019-03-01T03:14:58.441Z,70.93
2019-03-01T03:16:08.159Z,70.74
2019-03-01T03:17:17.908Z,70.74
2019-03-01T03:18:27.368Z,70.64
2019-03-01T03:19:37.316Z,70.74
2019-03-01T03:20:47.290Z,70.93
2019-03-01T03:21:57.395Z,70.64
2019-03-01T03:23:07.086Z,70.84
2019-03-01T03:24:17.070Z,70.36
2019-03-01T03:25:27.033Z,70.84
2019-03-01T03:26:36.772Z,70.45
2019-03-01T03:27:46.480Z,70.45
2019-03-01T03:28:56.466Z,70.55
2019-03-01T03:30:05.702Z,71.03
2019-03-01T03:31:15.721Z,70.36
2019-03-01T03:32:25.758Z,70.36
2019-03-01T03:33:35.559Z,70.36
2019-03-01T03:34:45.566Z,70.36
2019-03-01T03:35:55.625Z,70.36
2019-03-01T03:37:05.601Z,70.55
2019-03-01T03:38:15.302Z,70.84
2019-03-01T03:39:24.998Z,70.55
2019-03-01T03:40:34.957Z,70.45
2019-03-01T03:41:44.993Z,70.74
2019-03-01T03:42:54.981Z,70.93
2019-03-01T03:44:05.022Z,70.74
2019-03-01T03:45:14.478Z,70.84
2019-03-01T03:46:24.431Z,70.74
2019-03-01T03:47:34.141Z,70.74
2019-03-01T03:48:43.846Z,70.64
2019-03-01T03:49:53.805Z,70.74
2019-03-01T03:51:03.554Z,70.84
2019-03-01T03:52:12.512Z,70.55
2019-03-01T03:53:22.505Z,70.64
2019-03-01T03:54:32.205Z,70.74
2019-03-01T03:55:42.179Z,70.55
2019-03-01T03:56:51.945Z,70.74
2019-03-01T03:58:01.911Z,70.74
2019-03-01T03:59:11.369Z,70.84
2019-03-01T04:00:21.320Z,70.84
2019-03-01T04:01:31.046Z,70.74
2019-03-01T04:02:41.016Z,70.74
2019-03-01T04:03:50.962Z,70.74
2019-03-01T04:05:00.962Z,70.84
2019-03-01T04:06:10.928Z,70.74
2019-03-01T04:07:20.873Z,70.55
2019-03-01T04:08:30.573Z,70.84
2019-03-01T04:09:40.576Z,70.74
2019-03-01T04:10:50.536Z,70.84
2019-03-01T04:12:00.247Z,70.84
2019-03-01T04:13:10.213Z,70.45
2019-03-01T04:14:22.061Z,70.64
2019-03-01T04:15:31.794Z,70.93
2019-03-01T04:16:41.509Z,70.93
2019-03-01T04:17:51.207Z,70.55
2019-03-01T04:19:00.928Z,70.74
2019-03-01T04:20:10.871Z,70.55
2019-03-01T04:21:20.912Z,71.03
2019-03-01T04:22:30.869Z,70.64
2019-03-01T04:23:40.837Z,70.55
2019-03-01T04:24:50.812Z,70.64
2019-03-01T04:26:00.761Z,70.55
2019-03-01T04:27:10.712Z,70.64
2019-03-01T04:28:20.699Z,70.64
2019-03-01T04:29:30.652Z,70.84
2019-03-01T04:30:40.598Z,70.84
2019-03-01T04:31:50.638Z,70.74
2019-03-01T04:33:00.599Z,70.55
2019-03-01T04:34:10.321Z,70.45
2019-03-01T04:35:20.281Z,70.55
2019-03-01T04:36:30.284Z,70.74
2019-03-01T04:37:40.329Z,70.55
2019-03-01T04:38:50.055Z,70.74
2019-03-01T04:39:59.611Z,70.55
2019-03-01T04:41:09.792Z,70.55
2019-03-01T04:42:19.232Z,70.55
2019-03-01T04:43:28.675Z,70.45
2019-03-01T04:44:38.374Z,70.74
2019-03-01T04:45:48.318Z,70.45
2019-03-01T04:46:58.012Z,70.64
2019-03-01T04:48:07.951Z,70.64
2019-03-01T04:49:17.888Z,70.64
2019-03-01T04:50:27.582Z,70.64
2019-03-01T04:51:42.666Z,70.45
2019-03-01T04:52:52.109Z,70.45
2019-03-01T04:54:01.817Z,70.64
2019-03-01T04:55:11.778Z,70.64
2019-03-01T04:56:21.891Z,70.74
2019-03-01T04:57:31.928Z,70.55
2019-03-01T04:58:41.626Z,70.64
2019-03-01T04:59:51.334Z,71.03
2019-03-01T05:01:00.775Z,70.64
2019-03-01T05:02:10.467Z,70.64
2019-03-01T05:03:19.926Z,70.64
2019-03-01T05:04:29.869Z,71.22
2019-03-01T05:05:39.315Z,71.31
2019-03-01T05:06:49.249Z,71.22
2019-03-01T05:07:59.210Z,71.22
2019-03-01T05:09:08.649Z,71.22
2019-03-01T05:10:18.087Z,71.03
2019-03-01T05:11:27.782Z,71.22
2019-03-01T05:12:37.711Z,71.31
2019-03-01T05:13:47.656Z,71.12
2019-03-01T05:14:57.606Z,71.22
2019-03-01T05:16:07.564Z,71.31
2019-03-01T05:17:17.270Z,71.41
2019-03-01T05:18:26.709Z,71.09
2019-03-01T05:19:36.394Z,71.41
2019-03-01T05:20:46.075Z,71.47
2019-03-01T05:21:55.790Z,71.51
2019-03-01T05:23:05.309Z,71.7
2019-03-01T05:24:15.268Z,71.28
2019-03-01T05:25:24.712Z,71.47
2019-03-01T05:26:34.409Z,71.19
2019-03-01T05:27:44.176Z,71.09
2019-03-01T05:28:53.863Z,71.47
2019-03-01T05:30:03.807Z,71.19
2019-03-01T05:31:13.500Z,71.28
2019-03-01T05:32:23.463Z,71.09
2019-03-01T05:33:32.901Z,70.99
2019-03-01T05:34:42.839Z,72.05
2019-03-01T05:35:52.536Z,72.24
2019-03-01T05:37:01.984Z,71.95
2019-03-01T05:38:11.679Z,71.47
2019-03-01T05:39:29.350Z,71.12
2019-03-01T05:40:38.862Z,71.28
2019-03-01T05:41:48.825Z,71.41
2019-03-01T05:42:58.814Z,71.28
2019-03-01T05:44:08.759Z,71.47
2019-03-01T05:45:18.457Z,71.12
2019-03-01T05:46:28.404Z,71.28
2019-03-01T05:47:38.346Z,71.19
2019-03-01T05:48:48.304Z,71.19
2019-03-01T05:49:58.264Z,71.22
2019-03-01T05:51:09.932Z,71.22
2019-03-01T05:52:19.912Z,71.66
2019-03-01T05:53:29.621Z,71.98
2019-03-01T05:54:39.588Z,71.7
2019-03-01T05:55:49.284Z,71.28
2019-03-01T05:56:59.234Z,71.61
2019-03-01T05:58:18.675Z,71.41
2019-03-01T05:59:28.124Z,71.41
2019-03-01T06:00:37.819Z,71.57
2019-03-01T06:01:47.295Z,71.28
2019-03-01T06:02:56.985Z,71.09
2019-03-01T06:04:06.993Z,71.19
2019-03-01T06:05:16.680Z,70.99
2019-03-01T06:06:27.894Z,71.09
2019-03-01T06:07:37.607Z,70.99
2019-03-01T06:08:47.292Z,70.99
2019-03-01T06:09:56.740Z,71.19
2019-03-01T06:11:06.186Z,71.19
2019-03-01T06:12:15.885Z,71.19
2019-03-01T06:13:25.341Z,70.99
2019-03-01T06:14:35.281Z,71.19
2019-03-01T06:15:44.221Z,70.8
2019-03-01T06:16:53.926Z,70.61
2019-03-01T06:18:03.957Z,70.61
2019-03-01T06:19:13.893Z,70.7
2019-03-01T06:20:23.592Z,70.84
2019-03-01T06:21:33.542Z,70.51
2019-03-01T06:22:43.239Z,70.45
2019-03-01T06:23:52.928Z,70.84
2019-03-01T06:25:02.875Z,70.9
2019-03-01T06:26:12.924Z,70.9
2019-03-01T06:27:22.370Z,70.42
2019-03-01T06:28:31.824Z,70.7
2019-03-01T06:29:41.529Z,70.61
2019-03-01T06:30:54.303Z,70.8
2019-03-01T06:32:03.985Z,70.61
2019-03-01T06:33:13.701Z,70.51
2019-03-01T06:34:23.672Z,70.61
2019-03-01T06:35:33.374Z,70.61
2019-03-01T06:36:42.564Z,70.55
2019-03-01T06:37:52.254Z,70.55
2019-03-01T06:39:02.191Z,70.64
2019-03-01T06:40:11.389Z,70.64
2019-03-01T06:41:21.131Z,71.31
2019-03-01T06:42:30.594Z,71.41
2019-03-01T06:43:40.525Z,71.12
2019-03-01T06:44:50.514Z,71.03
2019-03-01T06:46:00.067Z,71.12
2019-03-01T06:47:09.546Z,71.03
2019-03-01T06:48:18.730Z,71.22
2019-03-01T06:49:28.695Z,71.31
2019-03-01T06:50:38.385Z,71.31
2019-03-01T06:51:48.073Z,71.22
2019-03-01T06:52:57.513Z,71.22
2019-03-01T06:54:07.461Z,71.25
2019-03-01T06:55:17.394Z,70.87
2019-03-01T06:56:27.334Z,70.68
2019-03-01T06:57:37.291Z,70.58
2019-03-01T06:58:46.974Z,70.68
2019-03-01T06:59:56.930Z,70.87
2019-03-01T07:01:06.613Z,70.68
2019-03-01T07:02:16.549Z,70.87
2019-03-01T07:03:26.494Z,70.97
2019-03-01T07:04:35.943Z,70.97
2019-03-01T07:05:45.659Z,70.97
2019-03-01T07:06:55.115Z,70.87
2019-03-01T07:08:05.058Z,70.2
2019-03-01T07:09:15.039Z,70.1
2019-03-01T07:10:24.737Z,70.29
2019-03-01T07:11:34.179Z,70.1
2019-03-01T07:12:43.914Z,70.1
2019-03-01T07:13:53.361Z,70.68
2019-03-01T07:15:02.818Z,70.39
2019-03-01T07:16:15.986Z,70.58
2019-03-01T07:17:25.695Z,70.33
2019-03-01T07:18:35.659Z,70.1
2019-03-01T07:19:45.602Z,70.01
2019-03-01T07:20:55.377Z,70.14
2019-03-01T07:22:05.202Z,70.68
2019-03-01T07:23:14.891Z,70.23
2019-03-01T07:24:24.767Z,70.23
2019-03-01T07:25:34.826Z,70.23
2019-03-01T07:26:45.230Z,70.14
2019-03-01T07:27:55.168Z,70.14
2019-03-01T07:29:04.616Z,69.91
2019-03-01T07:30:14.630Z,69.95
2019-03-01T07:31:24.358Z,69.66
2019-03-01T07:32:34.099Z,69.66
2019-03-01T07:33:43.824Z,69.66
2019-03-01T07:34:53.020Z,69.75
2019-03-01T07:36:02.729Z,69.85
2019-03-01T07:37:12.708Z,69.95
2019-03-01T07:38:24.854Z,69.95
2019-03-01T07:39:34.805Z,69.95
2019-03-01T07:40:44.744Z,69.66
2019-03-01T07:41:53.957Z,69.66
2019-03-01T07:43:03.429Z,69.75
2019-03-01T07:44:15.305Z,69.95
2019-03-01T07:45:24.759Z,69.75
2019-03-01T07:46:34.460Z,70.04
2019-03-01T07:47:44.203Z,70.04
2019-03-01T07:48:54.218Z,70.14
2019-03-01T07:50:03.944Z,70.14
2019-03-01T07:51:13.195Z,70.72
2019-03-01T07:52:22.638Z,70.33
2019-03-01T07:53:32.089Z,70.52
2019-03-01T07:54:49.367Z,70.52
2019-03-01T07:56:05.970Z,70.43
2019-03-01T07:57:17.945Z,70.56
2019-03-01T07:58:29.151Z,70.81
2019-03-01T07:59:41.540Z,70.65
2019-03-01T08:00:56.025Z,70.62
2019-03-01T08:02:07.176Z,70.52
2019-03-01T08:03:17.643Z,69.95
2019-03-01T08:04:31.862Z,70.37
2019-03-01T08:05:42.602Z,70.65
2019-03-01T08:06:52.556Z,70.65
2019-03-01T08:08:06.057Z,70.56
2019-03-01T08:09:15.762Z,70.46
2019-03-01T08:10:25.968Z,70.56
2019-03-01T08:11:35.944Z,70.94
2019-03-01T08:12:47.407Z,71
2019-03-01T08:13:57.368Z,70.81
2019-03-01T08:15:11.710Z,70.33
2019-03-01T08:16:25.009Z,70.23
2019-03-01T08:17:35.147Z,70.43
2019-03-01T08:18:47.381Z,70.72
2019-03-01T08:20:00.648Z,70.14
2019-03-01T08:21:14.760Z,70.33
2019-03-01T08:22:28.146Z,69.95
2019-03-01T08:23:50.732Z,69.75
2019-03-01T08:25:00.504Z,69.85
2019-03-01T08:26:10.212Z,69.95
2019-03-01T08:27:19.919Z,70.04
2019-03-01T08:28:30.636Z,69.95
2019-03-01T08:29:42.947Z,70.14
2019-03-01T08:30:52.892Z,69.46
2019-03-01T08:32:02.839Z,69.37
2019-03-01T08:33:12.789Z,69.37
2019-03-01T08:34:22.752Z,69.56
2019-03-01T08:35:34.540Z,69.46
2019-03-01T08:36:45.120Z,69.37
2019-03-01T08:37:56.584Z,69.37
2019-03-01T08:39:07.425Z,69.75
2019-03-01T08:40:18.071Z,69.37
2019-03-01T08:41:28.708Z,69.27
2019-03-01T08:42:38.861Z,69.46
2019-03-01T08:43:52.051Z,70.14
2019-03-01T08:45:02.778Z,69.85
2019-03-01T08:46:12.946Z,69.95
2019-03-01T08:47:25.996Z,69.85
2019-03-01T08:48:36.947Z,69.95
2019-03-01T08:49:46.660Z,70.14
2019-03-01T08:50:56.603Z,69.85
2019-03-01T08:52:06.338Z,70.04
2019-03-01T08:53:18.444Z,69.95
2019-03-01T08:54:31.024Z,70.14
2019-03-01T08:55:42.202Z,70.23
2019-03-01T08:56:52.771Z,70.04
2019-03-01T08:58:07.203Z,70.23
2019-03-01T08:59:20.796Z,69.95
2019-03-01T09:00:30.631Z,69.95
2019-03-01T09:01:41.639Z,69.95
2019-03-01T09:02:54.125Z,70.04
2019-03-01T09:04:03.815Z,70.14
2019-03-01T09:05:19.725Z,70.52
2019-03-01T09:06:29.424Z,70.04
2019-03-01T09:07:39.115Z,69.75
2019-03-01T09:08:49.342Z,70.04
2019-03-01T09:10:00.322Z,69.75
2019-03-01T09:11:12.610Z,69.95
2019-03-01T09:12:22.312Z,69.85
2019-03-01T09:13:32.338Z,70.04
2019-03-01T09:14:43.570Z,69.95
2019-03-01T09:15:53.279Z,70.14
2019-03-01T09:17:03.055Z,70.14
2019-03-01T09:18:14.551Z,70.14
2019-03-01T09:19:27.331Z,70.23
2019-03-01T09:20:40.960Z,70.23
2019-03-01T09:21:53.314Z,70.52
2019-03-01T09:23:21.072Z,70.81
2019-03-01T09:24:34.939Z,70.9
2019-03-01T09:25:49.692Z,70.9
2019-03-01T09:26:59.566Z,70.9
2019-03-01T09:28:09.518Z,70.62
2019-03-01T09:29:21.057Z,70.81
2019-03-01T09:30:31.012Z,70.9
2019-03-01T09:31:43.234Z,70.81
2019-03-01T09:32:53.725Z,71
2019-03-01T09:34:03.170Z,70.72
2019-03-01T09:35:13.610Z,70.81
2019-03-01T09:36:23.955Z,71.29
2019-03-01T09:37:35.603Z,71.58
2019-03-01T09:38:46.056Z,71.58
2019-03-01T09:40:05.174Z,71.87
2019-03-01T09:41:15.437Z,72.06
2019-03-01T09:42:25.141Z,71.77
2019-03-01T09:43:34.585Z,71.96
2019-03-01T09:44:44.022Z,71.96
2019-03-01T09:45:53.974Z,72.34
2019-03-01T09:47:04.179Z,71.87
2019-03-01T09:48:15.347Z,72.16
2019-03-01T09:49:27.531Z,72.06
2019-03-01T09:50:38.883Z,72.06
2019-03-01T09:51:52.156Z,72.16
2019-03-01T09:53:02.321Z,72.73
2019-03-01T09:54:12.719Z,72.25
2019-03-01T09:55:22.419Z,72.34
2019-03-01T09:56:32.354Z,72.92
2019-03-01T09:57:42.059Z,73.11
2019-03-01T09:58:51.707Z,73.21
2019-03-01T10:00:01.670Z,73.21
2019-03-01T10:01:11.369Z,73.31
2019-03-01T10:02:21.329Z,74.17
2019-03-01T10:03:31.283Z,74.27
2019-03-01T10:04:41.237Z,74.17
2019-03-01T10:05:50.681Z,74.13
2019-03-01T10:06:59.872Z,73.69
2019-03-01T10:08:10.212Z,73.27
2019-03-01T10:09:19.401Z,72.92
2019-03-01T10:10:29.337Z,73.11
2019-03-01T10:11:39.034Z,73.18
2019-03-01T10:12:48.726Z,73.18
2019-03-01T10:13:58.190Z,73.21
2019-03-01T10:15:08.138Z,73.27
2019-03-01T10:16:17.844Z,73.46
2019-03-01T10:17:27.545Z,73.11
2019-03-01T10:18:37.482Z,72.92
2019-03-01T10:19:47.178Z,73.11
2019-03-01T10:20:56.872Z,73.21
2019-03-01T10:22:06.804Z,72.83
2019-03-01T10:23:16.752Z,72.54
2019-03-01T10:24:26.690Z,72.54
2019-03-01T10:25:36.639Z,72.54
2019-03-01T10:26:46.576Z,72.06
2019-03-01T10:27:56.518Z,71.77
2019-03-01T10:29:06.210Z,72.06
2019-03-01T10:30:16.146Z,71.39
2019-03-01T10:31:25.596Z,71.58
2019-03-01T10:32:35.039Z,71.1
2019-03-01T10:33:44.730Z,71.19
2019-03-01T10:34:54.448Z,71.39
2019-03-01T10:36:03.650Z,71.1
2019-03-01T10:37:13.338Z,71.48
2019-03-01T10:38:23.273Z,71.1
2019-03-01T10:39:32.964Z,71.19
2019-03-01T10:40:42.657Z,71.39
2019-03-01T10:41:52.353Z,71.19
2019-03-01T10:43:02.298Z,71.29
2019-03-01T10:44:12.014Z,71.48
2019-03-01T10:45:21.956Z,71.29
2019-03-01T10:46:31.686Z,70.62
2019-03-01T10:47:41.383Z,70.81
2019-03-01T10:48:51.318Z,70.81
2019-03-01T10:50:00.762Z,70.81
2019-03-01T10:51:10.714Z,71.39
2019-03-01T10:52:20.400Z,70.9
2019-03-01T10:53:30.345Z,71
2019-03-01T10:54:40.038Z,70.43
2019-03-01T10:55:49.724Z,70.43
2019-03-01T10:56:59.674Z,70.81
2019-03-01T10:58:09.368Z,70.9
2019-03-01T10:59:19.310Z,70.14
2019-03-01T11:00:29.250Z,70.14
2019-03-01T11:01:39.205Z,70.14
2019-03-01T11:02:48.905Z,70.33
2019-03-01T11:03:58.587Z,70.04
2019-03-01T11:05:08.527Z,70.04
2019-03-01T11:06:18.465Z,70.04
2019-03-01T11:07:28.157Z,69.85
2019-03-01T11:08:37.858Z,69.85
2019-03-01T11:09:47.554Z,69.85
2019-03-01T11:10:57.491Z,69.37
2019-03-01T11:12:07.201Z,69.37
2019-03-01T11:13:16.902Z,69.95
2019-03-01T11:14:26.836Z,69.27
2019-03-01T11:15:36.524Z,69.27
2019-03-01T11:16:45.713Z,69.27
2019-03-01T11:17:54.902Z,69.95
2019-03-01T11:19:04.611Z,69.37
2019-03-01T11:20:14.052Z,69.08
2019-03-01T11:21:24.008Z,69.18
2019-03-01T11:22:33.955Z,69.37
2019-03-01T11:23:43.901Z,68.79
2019-03-01T11:24:53.846Z,68.79
2019-03-01T11:26:03.797Z,68.89
2019-03-01T11:27:15.582Z,68.89
2019-03-01T11:28:25.530Z,68.98
2019-03-01T11:29:34.720Z,68.79
2019-03-01T11:30:44.684Z,68.51
2019-03-01T11:31:54.399Z,68.79
2019-03-01T11:33:04.347Z,68.89
2019-03-01T11:34:14.290Z,68.7
2019-03-01T11:35:23.993Z,68.89
2019-03-01T11:36:33.944Z,68.41
2019-03-01T11:37:43.880Z,68.41
2019-03-01T11:38:53.866Z,68.21
2019-03-01T11:40:03.807Z,68.12
2019-03-01T11:41:13.746Z,68.51
2019-03-01T11:42:23.202Z,68.35
2019-03-01T11:43:32.904Z,67.83
2019-03-01T11:44:42.349Z,68.44
2019-03-01T11:45:52.300Z,67.83
2019-03-01T11:47:03.608Z,68.02
2019-03-01T11:48:13.304Z,68.15
2019-03-01T11:49:23.264Z,68.6
2019-03-01T11:50:32.908Z,68.7
2019-03-01T11:51:42.855Z,68.31
2019-03-01T11:52:52.057Z,68.31
2019-03-01T11:54:01.996Z,67.64
2019-03-01T11:55:11.948Z,68.31
2019-03-01T11:56:21.899Z,68.89
2019-03-01T11:57:31.345Z,68.79
2019-03-01T11:58:40.290Z,68.89
2019-03-01T11:59:49.993Z,68.35
2019-03-01T12:00:59.949Z,68.44
2019-03-01T12:02:09.638Z,68.44
2019-03-01T12:03:19.347Z,68.44
2019-03-01T12:04:28.821Z,68.63
2019-03-01T12:05:38.760Z,67.96
2019-03-01T12:06:48.706Z,68.35
2019-03-01T12:07:57.895Z,68.25
2019-03-01T12:09:07.586Z,68.25
2019-03-01T12:10:17.042Z,68.25
2019-03-01T12:11:26.985Z,68.35
2019-03-01T12:12:36.668Z,67.77
2019-03-01T12:13:46.609Z,67.64
2019-03-01T12:14:56.296Z,68.21
2019-03-01T12:16:05.999Z,68.02
2019-03-01T12:17:15.438Z,68.31
2019-03-01T12:18:25.375Z,68.44
2019-03-01T12:19:34.563Z,68.35
2019-03-01T12:20:44.519Z,68.63
2019-03-01T12:21:54.207Z,68.63
2019-03-01T12:23:04.149Z,68.54
2019-03-01T12:24:13.084Z,68.35
2019-03-01T12:25:22.806Z,68.25
2019-03-01T12:26:32.247Z,67.48
2019-03-01T12:27:42.188Z,67.86
2019-03-01T12:28:52.143Z,67.86
2019-03-01T12:30:02.081Z,68.44
2019-03-01T12:31:11.777Z,67.96
2019-03-01T12:32:21.715Z,67.96
2019-03-01T12:33:31.696Z,67.96
2019-03-01T12:34:41.627Z,68.15
2019-03-01T12:35:51.328Z,68.15
2019-03-01T12:37:01.321Z,67.86
2019-03-01T12:38:11.275Z,67.68
2019-03-01T12:39:21.224Z,67.58
2019-03-01T12:40:30.934Z,67.77
2019-03-01T12:41:40.398Z,67.77
2019-03-01T12:42:50.344Z,67.68
2019-03-01T12:44:00.040Z,67.77
2019-03-01T12:45:09.974Z,67.86
2019-03-01T12:46:19.423Z,67.77
2019-03-01T12:47:29.113Z,67.1
2019-03-01T12:48:38.853Z,67.19
2019-03-01T12:49:48.043Z,67.1
2019-03-01T12:50:57.502Z,67.38
2019-03-01T12:52:07.449Z,67.19
2019-03-01T12:53:17.408Z,66.61
2019-03-01T12:54:26.852Z,67.48
2019-03-01T12:55:36.791Z,67.68
2019-03-01T12:56:46.482Z,67.68
2019-03-01T12:57:56.215Z,67.68
2019-03-01T12:59:06.178Z,67.93
2019-03-01T13:00:16.165Z,68.06
2019-03-01T13:01:26.111Z,68.06
2019-03-01T13:02:35.811Z,67.74
2019-03-01T13:03:46.972Z,67.58
2019-03-01T13:04:56.965Z,67.86
2019-03-01T13:06:07.172Z,67.48
2019-03-01T13:07:17.143Z,67.48
2019-03-01T13:08:27.081Z,67
2019-03-01T13:09:36.516Z,67.77
2019-03-01T13:10:46.248Z,68.35
2019-03-01T13:11:55.933Z,68.06
2019-03-01T13:13:10.336Z,67.58
2019-03-01T13:14:20.040Z,67.48
2019-03-01T13:15:29.995Z,67.77
2019-03-01T13:16:39.975Z,67.86
2019-03-01T13:17:49.988Z,67.77
2019-03-01T13:18:59.481Z,67.86
2019-03-01T13:20:08.924Z,67.58
2019-03-01T13:21:18.860Z,67.86
2019-03-01T13:22:30.964Z,67.86
2019-03-01T13:23:45.392Z,67.86
2019-03-01T13:24:56.041Z,67.68
2019-03-01T13:26:08.612Z,67.96
2019-03-01T13:27:20.476Z,67.68
2019-03-01T13:28:29.445Z,67.48
2019-03-01T13:29:39.131Z,67.68
2019-03-01T13:30:48.854Z,67.96
2019-03-01T13:31:58.540Z,67.86
2019-03-01T13:33:08.006Z,68.25
2019-03-01T13:34:17.219Z,67.86
2019-03-01T13:35:28.638Z,67.68
2019-03-01T13:36:42.009Z,68.15
2019-03-01T13:37:55.243Z,67.77
2019-03-01T13:39:07.674Z,67.86
2019-03-01T13:40:20.800Z,67.48
2019-03-01T13:41:39.228Z,67.96
2019-03-01T13:42:53.206Z,67
2019-03-01T13:44:06.598Z,67.68
2019-03-01T13:45:17.291Z,67.48
2019-03-01T13:46:33.406Z,66.81
2019-03-01T13:47:47.130Z,67.48
2019-03-01T13:48:57.399Z,67.19
2019-03-01T13:50:09.179Z,66.91
2019-03-01T13:51:20.266Z,67.1
2019-03-01T13:52:32.536Z,67.1
2019-03-01T13:53:51.095Z,67.68
2019-03-01T13:55:01.051Z,67.8
2019-03-01T13:56:13.100Z,67.9
2019-03-01T13:57:22.546Z,67.99
2019-03-01T13:58:33.296Z,68.15
2019-03-01T13:59:46.403Z,67.77
2019-03-01T14:00:55.847Z,68.19
2019-03-01T14:02:07.465Z,67.86
2019-03-01T14:03:17.641Z,67.86
2019-03-01T14:04:30.684Z,67.77
2019-03-01T14:05:45.154Z,67.61
2019-03-01T14:06:59.421Z,67.61
2019-03-01T14:08:11.796Z,67.68
2019-03-01T14:09:23.257Z,67.51
2019-03-01T14:10:38.447Z,67.9
2019-03-01T14:11:49.299Z,67.8
2019-03-01T14:13:02.970Z,67.8
2019-03-01T14:14:14.102Z,67.51
2019-03-01T14:15:30.004Z,67.9
2019-03-01T14:16:43.810Z,67.8
2019-03-01T14:17:53.750Z,67.99
2019-03-01T14:19:08.218Z,67.8
2019-03-01T14:20:21.393Z,67.8
2019-03-01T14:21:32.976Z,67.8
2019-03-01T14:22:43.984Z,67.8
2019-03-01T14:23:57.568Z,67.51
2019-03-01T14:25:07.660Z,67.26
2019-03-01T14:26:20.726Z,67.51
2019-03-01T14:27:32.670Z,67.13
2019-03-01T14:28:44.362Z,67.51
2019-03-01T14:29:55.847Z,67.45
2019-03-01T14:31:07.376Z,66.88
2019-03-01T14:32:23.411Z,67.07
2019-03-01T14:33:35.951Z,67.07
2019-03-01T14:34:50.198Z,66.58
2019-03-01T14:36:02.658Z,66.74
2019-03-01T14:37:15.014Z,66.94
2019-03-01T14:38:29.881Z,66.97
2019-03-01T14:39:41.682Z,66.94
2019-03-01T14:40:56.027Z,67.03
2019-03-01T14:42:12.771Z,67.13
2019-03-01T14:43:23.863Z,67.32
2019-03-01T14:44:36.333Z,67.71
2019-03-01T14:45:47.883Z,67.03
2019-03-01T14:46:59.353Z,67.16
2019-03-01T14:48:11.883Z,67.16
2019-03-01T14:49:25.019Z,67.45
2019-03-01T14:50:36.251Z,67.55
2019-03-01T14:51:49.091Z,67.35
2019-03-01T14:53:00.852Z,67.35
2019-03-01T14:54:12.487Z,67.16
2019-03-01T14:55:26.270Z,66.58
2019-03-01T14:56:37.967Z,66.97
2019-03-01T14:57:49.349Z,66.88
2019-03-01T14:59:01.366Z,66.88
2019-03-01T15:00:15.142Z,67.55
2019-03-01T15:01:28.666Z,66.97
2019-03-01T15:02:42.253Z,67.16
2019-03-01T15:03:55.624Z,67.16
2019-03-01T15:05:16.904Z,67.45
2019-03-01T15:06:27.834Z,67.55
2019-03-01T15:07:38.800Z,67.74
2019-03-01T15:08:48.752Z,67.16